Relevés horaires Jungfraujoch (Suisse)


Relevés horaires à Jungfraujoch - Samedi 07 Févr. 2004
Heure UTC1 Température [°C] Vent [km/h] Hum. [%] Pres.4 [hPa] Visi. [Km] Nébu. [octa] Préc.5 [mm] Cond.
2m. Res. Ros. Dir.2 Vit. Moy. Raf.3
23:00 -16.2 -27.2 -18.1 NNO 27.8 -- -- 85 700 -- -- -- --
22:00 -15.1 -25.8 -16.9 NO 27.8 -- -- 86 700 -- -- -- --
21:00 -14.9 -26.7 -16.6 NO 35.2 50.0 98.2 87 700(-0.6/3h) -- -- -- --
20:00 -15.3 -27.7 -17.1 NNO 38.9 -- -- 86 700 -- -- -- --
19:00 -14.8 -27.5 -16.5 NO 42.6 -- -- 87 700 -- -- -- --
17:00 -14.1 -24.2 -17.9 NNO 25.9 -- -- 73 700 -- -- -- --
16:00 -9.8 -19.9 -12.6 NO 35.2 -- -- 80 700 -- -- -- --
15:00 -11.4 -21.3 -12.8 ONO 29.6 44.4 94.5 89 700(-0.7/3h) 0 -- -- Légère neige intermittente
14:00 -10.2 -17.8 -11.5 N 18.5 -- -- 90 700 -- -- -- --
13:00 -9.4 -18.7 -10.6 NNO 29.6 -- -- 91 700 -- -- -- --
12:00 -9.6 -20.7 -10.8 NO 44.4 46.3 94.5 91 700(-1.2/3h) 0 -- -- Neige modérée continue
11:00 -8.2 -18 -9.2 NNO 37.0 -- -- 92 700 -- -- -- --
10:00 -7.6 -17.8 -8.5 NO 42.6 -- -- 93 700 -- -- -- --
09:00 -8.1 -17.7 -9.1 NNO 35.2 46.3 101.9 92 700(-1.2/3h) 0 -- -- Légère neige continue
08:00 -7.0 -16.6 -7.9 NNO 38.9 -- -- 93 700 -- -- -- --
07:00 -7.9 -17.4 -8.9 NNO 35.2 -- -- 92 700 -- -- -- --
06:00 -8.2 -17.6 -9.2 NNO 33.3 44.4 101.9 92 700(-1.7/3h) 0 -- -- Légère neige intermittente
05:00 -7.9 -17.6 -8.9 NO 37.0 -- -- 92 700 -- -- -- --
04:00 -7.4 -16.3 -9.2 NNO 31.5 -- -- 87 700 -- -- -- --
03:00 -8.2 -16.6 -11.0 NO 25.9 38.9 79.6 80 700(-2.4/3h) -- -- -- --
02:00 -7.8 -16.1 -12.4 NO 25.9 -- -- 69 700 -- -- -- --
01:00 -6.8 -16.2 -15.1 NO 37.0 -- -- 51 700 -- -- -- --
00:00 -6.4 -15 -15.9 NO 31.5 37.0 77.8 47 700(-1.1/3h) -- -- -- --

1 Coordinated Universal Time. Actuellement il est 17:00 locale et 15:00 UTC.

2 Le vent souffle depuis la direction indiquée vers la direction oposée.

3 Les rafales max. sont disponible 40 min après l'heure du relevé.

4 Pour les stations d'altitude (plus de 600m) le géopotentiel du niveau le plus proche de la pression obligatoire est indiqué.

5 Les stations disposant d'un diffuseur peuvent indiquer "trace". Cela signifie que des précipitations ont touchés le sol mais que la quantité est inférieure à 0.1 mm.

Copyright

Les données affichées sur cette page sont la propriété exclusive de Météo Suisse.

Récapitulatif de la journée
Température [°C] Vent [km/h] Ensoleillement4 [h] Precipitations totale5 [mm] Pression [Hpa]
Min1 Max.2 Moy.3 Max. Min Max.
-8.7 -- 43.9 101.9 0 h 0 min 0 700.0 700.0

1 Température minimale relevée entre 18:00 UTC la veille et 18:00 UTC le jour donné.

2 Température maximale relevée entre 06:00 UTC le jour donné et 06:00 UTC le lendemain.

3 Vent moyen de la journée basé sur les relevés horaires.

4 Ensoleillement en heures relevé entre 06:00 UTC la veille et 06:00 UTC le jour donné.

5 Précipitations totales tombées entre 06:00 UTC la jour donné et 06:00 UTC le lendemain.

Graphiques horaires